sensor_id;sensor_type;location;lat;lon;timestamp;temperature;humidity
43999;DHT22;51319;52.162;5.302;2023-08-30T00:01:40;13.70;96.00
43999;DHT22;51319;52.162;5.302;2023-08-30T00:04:07;13.60;96.00
43999;DHT22;51319;52.162;5.302;2023-08-30T00:06:34;13.60;96.10
43999;DHT22;51319;52.162;5.302;2023-08-30T00:09:01;13.50;96.20
43999;DHT22;51319;52.162;5.302;2023-08-30T00:11:27;13.50;96.20
43999;DHT22;51319;52.162;5.302;2023-08-30T00:14:03;13.50;96.30
43999;DHT22;51319;52.162;5.302;2023-08-30T00:16:33;13.50;96.40
43999;DHT22;51319;52.162;5.302;2023-08-30T00:19:00;13.40;96.40
43999;DHT22;51319;52.162;5.302;2023-08-30T00:21:27;13.40;96.60
43999;DHT22;51319;52.162;5.302;2023-08-30T00:23:54;13.40;96.70
43999;DHT22;51319;52.162;5.302;2023-08-30T00:26:21;13.40;96.80
43999;DHT22;51319;52.162;5.302;2023-08-30T00:28:48;13.40;97.00
43999;DHT22;51319;52.162;5.302;2023-08-30T00:31:15;13.50;97.10
43999;DHT22;51319;52.162;5.302;2023-08-30T00:33:42;13.60;97.10
43999;DHT22;51319;52.162;5.302;2023-08-30T00:36:09;13.60;97.00
43999;DHT22;51319;52.162;5.302;2023-08-30T00:38:36;13.70;97.00
43999;DHT22;51319;52.162;5.302;2023-08-30T00:41:03;13.70;96.90
43999;DHT22;51319;52.162;5.302;2023-08-30T00:43:30;13.80;96.90
43999;DHT22;51319;52.162;5.302;2023-08-30T00:45:57;13.80;96.80
43999;DHT22;51319;52.162;5.302;2023-08-30T00:48:24;13.90;96.70
43999;DHT22;51319;52.162;5.302;2023-08-30T00:50:51;13.90;96.70
43999;DHT22;51319;52.162;5.302;2023-08-30T00:53:18;14.00;96.60
43999;DHT22;51319;52.162;5.302;2023-08-30T00:55:45;14.00;96.40
43999;DHT22;51319;52.162;5.302;2023-08-30T00:58:13;14.00;96.20
43999;DHT22;51319;52.162;5.302;2023-08-30T01:00:40;14.00;96.10
43999;DHT22;51319;52.162;5.302;2023-08-30T01:03:07;14.10;96.10
43999;DHT22;51319;52.162;5.302;2023-08-30T01:05:34;14.10;95.90
43999;DHT22;51319;52.162;5.302;2023-08-30T01:08:01;14.10;95.80
43999;DHT22;51319;52.162;5.302;2023-08-30T01:10:44;14.10;95.60
43999;DHT22;51319;52.162;5.302;2023-08-30T01:13:19;14.20;95.40
43999;DHT22;51319;52.162;5.302;2023-08-30T01:15:48;14.20;95.30
43999;DHT22;51319;52.162;5.302;2023-08-30T01:18:18;14.20;95.20
43999;DHT22;51319;52.162;5.302;2023-08-30T01:20:47;14.20;95.20
43999;DHT22;51319;52.162;5.302;2023-08-30T01:23:39;14.20;95.10
43999;DHT22;51319;52.162;5.302;2023-08-30T01:28:35;14.20;94.90
43999;DHT22;51319;52.162;5.302;2023-08-30T01:31:02;14.30;94.90
43999;DHT22;51319;52.162;5.302;2023-08-30T01:33:31;14.30;94.70
43999;DHT22;51319;52.162;5.302;2023-08-30T01:36:01;14.30;94.50
43999;DHT22;51319;52.162;5.302;2023-08-30T01:38:29;14.30;94.50
43999;DHT22;51319;52.162;5.302;2023-08-30T01:40:59;14.30;94.50
43999;DHT22;51319;52.162;5.302;2023-08-30T01:43:29;14.30;94.40
43999;DHT22;51319;52.162;5.302;2023-08-30T01:45:57;14.30;94.20
43999;DHT22;51319;52.162;5.302;2023-08-30T01:48:27;14.30;94.20
43999;DHT22;51319;52.162;5.302;2023-08-30T01:50:54;14.30;94.20
43999;DHT22;51319;52.162;5.302;2023-08-30T01:53:25;14.30;94.10
43999;DHT22;51319;52.162;5.302;2023-08-30T01:55:53;14.30;94.00
43999;DHT22;51319;52.162;5.302;2023-08-30T01:58:20;14.20;93.80
43999;DHT22;51319;52.162;5.302;2023-08-30T02:00:47;14.20;93.80
43999;DHT22;51319;52.162;5.302;2023-08-30T02:03:14;14.20;93.80
43999;DHT22;51319;52.162;5.302;2023-08-30T02:08:41;14.20;93.80
43999;DHT22;51319;52.162;5.302;2023-08-30T02:11:19;14.30;93.80
43999;DHT22;51319;52.162;5.302;2023-08-30T02:13:46;14.30;93.70
43999;DHT22;51319;52.162;5.302;2023-08-30T02:16:14;14.30;93.70
43999;DHT22;51319;52.162;5.302;2023-08-30T02:18:44;14.30;93.70
43999;DHT22;51319;52.162;5.302;2023-08-30T02:21:11;14.30;93.50
43999;DHT22;51319;52.162;5.302;2023-08-30T02:23:38;14.30;93.50
43999;DHT22;51319;52.162;5.302;2023-08-30T02:26:05;14.30;93.50
43999;DHT22;51319;52.162;5.302;2023-08-30T02:28:32;14.30;93.40
43999;DHT22;51319;52.162;5.302;2023-08-30T02:30:59;14.30;93.50
43999;DHT22;51319;52.162;5.302;2023-08-30T02:33:26;14.40;93.50
43999;DHT22;51319;52.162;5.302;2023-08-30T02:35:53;14.30;93.40
43999;DHT22;51319;52.162;5.302;2023-08-30T02:38:20;14.30;93.30
43999;DHT22;51319;52.162;5.302;2023-08-30T02:40:59;14.30;93.20
43999;DHT22;51319;52.162;5.302;2023-08-30T02:43:26;14.30;93.20
43999;DHT22;51319;52.162;5.302;2023-08-30T02:45:53;14.30;93.20
43999;DHT22;51319;52.162;5.302;2023-08-30T02:48:20;14.30;93.20
43999;DHT22;51319;52.162;5.302;2023-08-30T02:50:47;14.30;93.10
43999;DHT22;51319;52.162;5.302;2023-08-30T02:53:14;14.20;93.10
43999;DHT22;51319;52.162;5.302;2023-08-30T02:55:41;14.10;93.00
43999;DHT22;51319;52.162;5.302;2023-08-30T02:58:08;14.00;93.10
43999;DHT22;51319;52.162;5.302;2023-08-30T03:00:35;13.90;93.30
43999;DHT22;51319;52.162;5.302;2023-08-30T03:03:03;13.80;93.50
43999;DHT22;51319;52.162;5.302;2023-08-30T03:05:30;13.70;93.70
43999;DHT22;51319;52.162;5.302;2023-08-30T03:07:57;13.60;93.80
43999;DHT22;51319;52.162;5.302;2023-08-30T03:10:24;13.50;94.00
43999;DHT22;51319;52.162;5.302;2023-08-30T03:12:51;13.40;94.20
43999;DHT22;51319;52.162;5.302;2023-08-30T03:15:18;13.40;94.40
43999;DHT22;51319;52.162;5.302;2023-08-30T03:17:45;13.30;94.50
43999;DHT22;51319;52.162;5.302;2023-08-30T03:20:12;13.30;94.70
43999;DHT22;51319;52.162;5.302;2023-08-30T03:22:39;13.30;95.00
43999;DHT22;51319;52.162;5.302;2023-08-30T03:25:06;13.20;95.10
43999;DHT22;51319;52.162;5.302;2023-08-30T03:27:35;13.20;95.30
43999;DHT22;51319;52.162;5.302;2023-08-30T03:30:03;13.20;95.40
43999;DHT22;51319;52.162;5.302;2023-08-30T03:32:30;13.10;95.50
43999;DHT22;51319;52.162;5.302;2023-08-30T03:34:59;13.10;95.70
43999;DHT22;51319;52.162;5.302;2023-08-30T03:37:26;13.10;95.90
43999;DHT22;51319;52.162;5.302;2023-08-30T03:39:53;13.00;95.90
43999;DHT22;51319;52.162;5.302;2023-08-30T03:42:20;13.00;96.10
43999;DHT22;51319;52.162;5.302;2023-08-30T03:44:47;12.90;96.20
43999;DHT22;51319;52.162;5.302;2023-08-30T03:47:14;12.90;96.30
43999;DHT22;51319;52.162;5.302;2023-08-30T03:49:41;12.90;96.40
43999;DHT22;51319;52.162;5.302;2023-08-30T03:52:10;12.90;96.50
43999;DHT22;51319;52.162;5.302;2023-08-30T03:54:37;12.80;96.60
43999;DHT22;51319;52.162;5.302;2023-08-30T03:57:04;12.70;96.60
43999;DHT22;51319;52.162;5.302;2023-08-30T03:59:31;12.70;96.70
43999;DHT22;51319;52.162;5.302;2023-08-30T04:01:58;12.70;96.80
43999;DHT22;51319;52.162;5.302;2023-08-30T04:04:25;12.70;97.00
43999;DHT22;51319;52.162;5.302;2023-08-30T04:06:52;12.60;97.00
43999;DHT22;51319;52.162;5.302;2023-08-30T04:09:18;12.60;97.10
43999;DHT22;51319;52.162;5.302;2023-08-30T04:11:45;12.50;97.20
43999;DHT22;51319;52.162;5.302;2023-08-30T04:14:12;12.50;97.20
43999;DHT22;51319;52.162;5.302;2023-08-30T04:16:39;12.50;97.30
43999;DHT22;51319;52.162;5.302;2023-08-30T04:19:09;12.50;97.20
43999;DHT22;51319;52.162;5.302;2023-08-30T04:21:36;12.40;97.20
43999;DHT22;51319;52.162;5.302;2023-08-30T04:24:03;12.50;97.30
43999;DHT22;51319;52.162;5.302;2023-08-30T04:26:30;12.50;97.40
43999;DHT22;51319;52.162;5.302;2023-08-30T04:28:57;12.50;97.20
43999;DHT22;51319;52.162;5.302;2023-08-30T04:31:24;12.50;97.20
43999;DHT22;51319;52.162;5.302;2023-08-30T04:33:51;12.50;97.20
43999;DHT22;51319;52.162;5.302;2023-08-30T04:36:19;12.50;97.30
43999;DHT22;51319;52.162;5.302;2023-08-30T04:38:46;12.50;97.30
43999;DHT22;51319;52.162;5.302;2023-08-30T04:41:28;12.60;97.30
43999;DHT22;51319;52.162;5.302;2023-08-30T04:43:55;12.70;97.20
43999;DHT22;51319;52.162;5.302;2023-08-30T04:46:22;12.70;96.90
43999;DHT22;51319;52.162;5.302;2023-08-30T04:48:49;12.80;96.70
43999;DHT22;51319;52.162;5.302;2023-08-30T04:51:15;12.70;96.50
43999;DHT22;51319;52.162;5.302;2023-08-30T04:53:42;12.70;96.40
43999;DHT22;51319;52.162;5.302;2023-08-30T04:56:13;12.60;96.40
43999;DHT22;51319;52.162;5.302;2023-08-30T04:58:40;12.60;96.40
43999;DHT22;51319;52.162;5.302;2023-08-30T05:01:07;12.60;96.40
43999;DHT22;51319;52.162;5.302;2023-08-30T05:03:35;12.60;96.40
43999;DHT22;51319;52.162;5.302;2023-08-30T05:06:02;12.60;96.50
43999;DHT22;51319;52.162;5.302;2023-08-30T05:08:29;12.60;96.50
43999;DHT22;51319;52.162;5.302;2023-08-30T05:10:56;12.60;96.50
43999;DHT22;51319;52.162;5.302;2023-08-30T05:13:23;12.60;96.50
43999;DHT22;51319;52.162;5.302;2023-08-30T05:15:50;12.60;96.40
43999;DHT22;51319;52.162;5.302;2023-08-30T05:18:19;12.60;96.40
43999;DHT22;51319;52.162;5.302;2023-08-30T05:20:46;12.70;96.30
43999;DHT22;51319;52.162;5.302;2023-08-30T05:23:13;12.70;96.10
43999;DHT22;51319;52.162;5.302;2023-08-30T05:25:40;12.80;96.00
43999;DHT22;51319;52.162;5.302;2023-08-30T05:28:06;12.80;96.00
43999;DHT22;51319;52.162;5.302;2023-08-30T05:30:34;12.90;95.90
43999;DHT22;51319;52.162;5.302;2023-08-30T05:33:01;13.00;95.90
43999;DHT22;51319;52.162;5.302;2023-08-30T05:35:30;13.10;95.90
43999;DHT22;51319;52.162;5.302;2023-08-30T05:37:57;13.20;95.80
43999;DHT22;51319;52.162;5.302;2023-08-30T05:40:24;13.30;95.70
43999;DHT22;51319;52.162;5.302;2023-08-30T05:42:51;13.40;95.50
43999;DHT22;51319;52.162;5.302;2023-08-30T05:45:20;13.50;95.30
43999;DHT22;51319;52.162;5.302;2023-08-30T05:47:47;13.50;94.90
43999;DHT22;51319;52.162;5.302;2023-08-30T05:50:14;13.60;94.80
43999;DHT22;51319;52.162;5.302;2023-08-30T05:52:41;13.60;94.70
43999;DHT22;51319;52.162;5.302;2023-08-30T05:55:11;13.60;94.50
43999;DHT22;51319;52.162;5.302;2023-08-30T05:57:38;13.70;94.50
43999;DHT22;51319;52.162;5.302;2023-08-30T06:00:05;13.80;94.40
43999;DHT22;51319;52.162;5.302;2023-08-30T06:02:34;13.90;94.30
43999;DHT22;51319;52.162;5.302;2023-08-30T06:05:00;14.00;94.10
43999;DHT22;51319;52.162;5.302;2023-08-30T06:07:28;14.00;93.80
43999;DHT22;51319;52.162;5.302;2023-08-30T06:09:55;14.00;93.60
43999;DHT22;51319;52.162;5.302;2023-08-30T06:12:25;14.00;93.50
43999;DHT22;51319;52.162;5.302;2023-08-30T06:14:52;14.00;93.50
43999;DHT22;51319;52.162;5.302;2023-08-30T06:17:19;14.00;93.60
43999;DHT22;51319;52.162;5.302;2023-08-30T06:19:47;13.90;93.70
43999;DHT22;51319;52.162;5.302;2023-08-30T06:22:14;13.80;93.90
43999;DHT22;51319;52.162;5.302;2023-08-30T06:24:41;13.70;94.40
43999;DHT22;51319;52.162;5.302;2023-08-30T06:27:09;13.60;95.00
43999;DHT22;51319;52.162;5.302;2023-08-30T06:29:36;13.60;95.50
43999;DHT22;51319;52.162;5.302;2023-08-30T06:32:03;13.50;95.90
43999;DHT22;51319;52.162;5.302;2023-08-30T06:34:32;13.40;96.40
43999;DHT22;51319;52.162;5.302;2023-08-30T06:36:59;13.40;96.90
43999;DHT22;51319;52.162;5.302;2023-08-30T06:39:31;13.30;97.40
43999;DHT22;51319;52.162;5.302;2023-08-30T06:41:58;13.20;97.90
43999;DHT22;51319;52.162;5.302;2023-08-30T06:44:25;13.10;98.40
43999;DHT22;51319;52.162;5.302;2023-08-30T06:46:52;13.10;98.90
43999;DHT22;51319;52.162;5.302;2023-08-30T06:49:19;13.00;99.40
43999;DHT22;51319;52.162;5.302;2023-08-30T06:51:47;13.00;99.90
43999;DHT22;51319;52.162;5.302;2023-08-30T06:54:14;13.00;99.90
43999;DHT22;51319;52.162;5.302;2023-08-30T06:56:41;13.00;99.90
43999;DHT22;51319;52.162;5.302;2023-08-30T06:59:07;13.00;99.90
43999;DHT22;51319;52.162;5.302;2023-08-30T07:01:34;13.00;99.90
43999;DHT22;51319;52.162;5.302;2023-08-30T07:04:02;13.10;99.90
43999;DHT22;51319;52.162;5.302;2023-08-30T07:06:30;13.10;99.90
43999;DHT22;51319;52.162;5.302;2023-08-30T07:08:57;13.20;99.90
43999;DHT22;51319;52.162;5.302;2023-08-30T07:11:24;13.20;99.90
43999;DHT22;51319;52.162;5.302;2023-08-30T07:13:59;13.30;99.90
43999;DHT22;51319;52.162;5.302;2023-08-30T07:16:26;13.30;99.90
43999;DHT22;51319;52.162;5.302;2023-08-30T07:18:53;13.30;99.90
43999;DHT22;51319;52.162;5.302;2023-08-30T07:21:20;13.30;99.90
43999;DHT22;51319;52.162;5.302;2023-08-30T07:23:48;13.30;99.90
43999;DHT22;51319;52.162;5.302;2023-08-30T07:26:15;13.40;99.90
43999;DHT22;51319;52.162;5.302;2023-08-30T07:28:42;13.30;99.90
43999;DHT22;51319;52.162;5.302;2023-08-30T07:31:09;13.40;99.90
43999;DHT22;51319;52.162;5.302;2023-08-30T07:33:36;13.40;99.90
43999;DHT22;51319;52.162;5.302;2023-08-30T07:36:03;13.50;99.90
43999;DHT22;51319;52.162;5.302;2023-08-30T07:38:31;13.50;99.90
43999;DHT22;51319;52.162;5.302;2023-08-30T07:40:59;13.50;99.90
43999;DHT22;51319;52.162;5.302;2023-08-30T07:43:26;13.60;99.90
43999;DHT22;51319;52.162;5.302;2023-08-30T07:45:53;13.60;99.90
43999;DHT22;51319;52.162;5.302;2023-08-30T07:48:20;13.70;99.90
43999;DHT22;51319;52.162;5.302;2023-08-30T07:50:47;13.70;99.90
43999;DHT22;51319;52.162;5.302;2023-08-30T07:53:17;13.80;99.90
43999;DHT22;51319;52.162;5.302;2023-08-30T07:55:48;13.90;99.90
43999;DHT22;51319;52.162;5.302;2023-08-30T07:58:17;13.90;99.90
43999;DHT22;51319;52.162;5.302;2023-08-30T08:00:44;13.90;99.90
43999;DHT22;51319;52.162;5.302;2023-08-30T08:03:11;13.90;99.90
43999;DHT22;51319;52.162;5.302;2023-08-30T08:05:38;14.00;99.90
43999;DHT22;51319;52.162;5.302;2023-08-30T08:08:07;14.00;99.90
43999;DHT22;51319;52.162;5.302;2023-08-30T08:10:36;14.00;99.90
43999;DHT22;51319;52.162;5.302;2023-08-30T08:13:03;14.10;99.90
43999;DHT22;51319;52.162;5.302;2023-08-30T08:15:33;14.30;99.90
43999;DHT22;51319;52.162;5.302;2023-08-30T08:18:01;14.30;99.90
43999;DHT22;51319;52.162;5.302;2023-08-30T08:20:29;14.30;99.90
43999;DHT22;51319;52.162;5.302;2023-08-30T08:22:56;14.20;99.90
43999;DHT22;51319;52.162;5.302;2023-08-30T08:25:23;14.10;99.90
43999;DHT22;51319;52.162;5.302;2023-08-30T08:27:50;14.10;99.90
43999;DHT22;51319;52.162;5.302;2023-08-30T08:30:17;14.10;99.90
43999;DHT22;51319;52.162;5.302;2023-08-30T08:32:45;14.10;99.90
43999;DHT22;51319;52.162;5.302;2023-08-30T08:35:13;14.10;99.90
43999;DHT22;51319;52.162;5.302;2023-08-30T08:37:40;14.20;99.90
43999;DHT22;51319;52.162;5.302;2023-08-30T08:40:07;14.30;99.90
43999;DHT22;51319;52.162;5.302;2023-08-30T08:42:37;14.30;99.90
43999;DHT22;51319;52.162;5.302;2023-08-30T08:45:05;14.40;99.90
43999;DHT22;51319;52.162;5.302;2023-08-30T08:47:32;14.40;99.90
43999;DHT22;51319;52.162;5.302;2023-08-30T08:49:59;14.50;99.90
43999;DHT22;51319;52.162;5.302;2023-08-30T08:52:28;14.50;99.90
43999;DHT22;51319;52.162;5.302;2023-08-30T08:55:06;14.60;99.90
43999;DHT22;51319;52.162;5.302;2023-08-30T08:57:33;14.60;99.90
43999;DHT22;51319;52.162;5.302;2023-08-30T09:00:01;14.60;99.90
43999;DHT22;51319;52.162;5.302;2023-08-30T09:02:28;14.60;99.90
43999;DHT22;51319;52.162;5.302;2023-08-30T09:04:58;14.70;99.90
43999;DHT22;51319;52.162;5.302;2023-08-30T09:07:27;14.80;99.90
43999;DHT22;51319;52.162;5.302;2023-08-30T09:09:57;14.80;99.90
43999;DHT22;51319;52.162;5.302;2023-08-30T09:12:24;14.80;99.90
43999;DHT22;51319;52.162;5.302;2023-08-30T09:14:55;14.70;99.90
43999;DHT22;51319;52.162;5.302;2023-08-30T09:17:23;14.80;99.90
43999;DHT22;51319;52.162;5.302;2023-08-30T09:19:51;14.90;99.90
43999;DHT22;51319;52.162;5.302;2023-08-30T09:22:42;15.00;99.90
43999;DHT22;51319;52.162;5.302;2023-08-30T09:25:11;15.00;99.90
43999;DHT22;51319;52.162;5.302;2023-08-30T09:27:39;15.10;99.90
43999;DHT22;51319;52.162;5.302;2023-08-30T09:30:08;15.30;99.90
43999;DHT22;51319;52.162;5.302;2023-08-30T09:32:41;15.50;99.90
43999;DHT22;51319;52.162;5.302;2023-08-30T09:35:09;15.60;99.90
43999;DHT22;51319;52.162;5.302;2023-08-30T09:37:36;15.70;99.90
43999;DHT22;51319;52.162;5.302;2023-08-30T09:40:05;15.60;99.90
43999;DHT22;51319;52.162;5.302;2023-08-30T09:42:32;15.70;99.90
43999;DHT22;51319;52.162;5.302;2023-08-30T09:44:59;15.70;99.90
43999;DHT22;51319;52.162;5.302;2023-08-30T09:47:27;15.70;99.90
43999;DHT22;51319;52.162;5.302;2023-08-30T09:49:58;15.70;99.90
43999;DHT22;51319;52.162;5.302;2023-08-30T09:52:26;15.70;99.90
43999;DHT22;51319;52.162;5.302;2023-08-30T09:54:56;15.70;99.90
43999;DHT22;51319;52.162;5.302;2023-08-30T09:57:24;15.70;99.90
43999;DHT22;51319;52.162;5.302;2023-08-30T09:59:51;15.70;99.90
43999;DHT22;51319;52.162;5.302;2023-08-30T10:02:19;15.70;99.90
43999;DHT22;51319;52.162;5.302;2023-08-30T10:04:47;15.70;99.90
43999;DHT22;51319;52.162;5.302;2023-08-30T10:07:16;15.80;99.90
43999;DHT22;51319;52.162;5.302;2023-08-30T10:09:46;16.00;99.90
43999;DHT22;51319;52.162;5.302;2023-08-30T10:12:34;16.20;99.90
43999;DHT22;51319;52.162;5.302;2023-08-30T10:15:02;16.30;99.90
43999;DHT22;51319;52.162;5.302;2023-08-30T10:17:33;16.40;99.90
43999;DHT22;51319;52.162;5.302;2023-08-30T10:20:05;16.60;99.90
43999;DHT22;51319;52.162;5.302;2023-08-30T10:22:36;17.70;99.90
43999;DHT22;51319;52.162;5.302;2023-08-30T10:25:11;19.50;99.90
43999;DHT22;51319;52.162;5.302;2023-08-30T10:27:46;20.50;99.90
43999;DHT22;51319;52.162;5.302;2023-08-30T10:30:15;21.00;96.70
43999;DHT22;51319;52.162;5.302;2023-08-30T10:32:45;21.40;96.00
43999;DHT22;51319;52.162;5.302;2023-08-30T10:35:14;23.20;93.10
43999;DHT22;51319;52.162;5.302;2023-08-30T10:37:42;24.70;88.70
43999;DHT22;51319;52.162;5.302;2023-08-30T10:40:09;26.10;81.70
43999;DHT22;51319;52.162;5.302;2023-08-30T10:42:38;27.00;75.50
43999;DHT22;51319;52.162;5.302;2023-08-30T10:45:06;27.80;72.00
43999;DHT22;51319;52.162;5.302;2023-08-30T10:47:41;28.40;67.50
43999;DHT22;51319;52.162;5.302;2023-08-30T10:50:10;28.70;63.50
43999;DHT22;51319;52.162;5.302;2023-08-30T10:52:37;29.10;63.40
43999;DHT22;51319;52.162;5.302;2023-08-30T10:55:14;29.40;61.50
43999;DHT22;51319;52.162;5.302;2023-08-30T11:00:20;29.70;59.10
43999;DHT22;51319;52.162;5.302;2023-08-30T11:02:49;28.50;57.60
43999;DHT22;51319;52.162;5.302;2023-08-30T11:05:18;27.60;59.00
43999;DHT22;51319;52.162;5.302;2023-08-30T11:07:46;27.20;59.40
43999;DHT22;51319;52.162;5.302;2023-08-30T11:10:16;26.80;60.70
43999;DHT22;51319;52.162;5.302;2023-08-30T11:12:44;26.10;60.60
43999;DHT22;51319;52.162;5.302;2023-08-30T11:15:13;25.50;62.10
43999;DHT22;51319;52.162;5.302;2023-08-30T11:17:44;26.60;61.60
43999;DHT22;51319;52.162;5.302;2023-08-30T11:20:16;28.00;60.00
43999;DHT22;51319;52.162;5.302;2023-08-30T11:22:48;29.10;57.90
43999;DHT22;51319;52.162;5.302;2023-08-30T11:30:40;25.00;61.10
43999;DHT22;51319;52.162;5.302;2023-08-30T11:33:08;24.00;63.00
43999;DHT22;51319;52.162;5.302;2023-08-30T11:35:51;23.30;64.60
43999;DHT22;51319;52.162;5.302;2023-08-30T11:38:21;23.60;67.00
43999;DHT22;51319;52.162;5.302;2023-08-30T11:40:49;25.60;65.00
43999;DHT22;51319;52.162;5.302;2023-08-30T11:43:17;27.30;62.20
43999;DHT22;51319;52.162;5.302;2023-08-30T11:45:44;28.20;58.90
43999;DHT22;51319;52.162;5.302;2023-08-30T11:48:11;28.30;57.20
43999;DHT22;51319;52.162;5.302;2023-08-30T11:50:38;28.10;58.00
43999;DHT22;51319;52.162;5.302;2023-08-30T11:53:14;28.50;56.70
43999;DHT22;51319;52.162;5.302;2023-08-30T11:55:44;29.30;56.50
43999;DHT22;51319;52.162;5.302;2023-08-30T11:58:12;29.70;53.80
43999;DHT22;51319;52.162;5.302;2023-08-30T12:00:39;29.00;53.80
43999;DHT22;51319;52.162;5.302;2023-08-30T12:03:06;28.40;54.30
43999;DHT22;51319;52.162;5.302;2023-08-30T12:05:34;27.90;54.10
43999;DHT22;51319;52.162;5.302;2023-08-30T12:08:03;27.40;54.00
43999;DHT22;51319;52.162;5.302;2023-08-30T12:10:30;26.70;54.90
43999;DHT22;51319;52.162;5.302;2023-08-30T12:13:00;26.00;53.80
43999;DHT22;51319;52.162;5.302;2023-08-30T12:15:41;25.50;53.90
43999;DHT22;51319;52.162;5.302;2023-08-30T12:18:10;25.00;55.40
43999;DHT22;51319;52.162;5.302;2023-08-30T12:20:37;26.00;55.80
43999;DHT22;51319;52.162;5.302;2023-08-30T12:23:04;27.60;54.00
43999;DHT22;51319;52.162;5.302;2023-08-30T12:25:32;28.80;52.20
43999;DHT22;51319;52.162;5.302;2023-08-30T12:28:00;30.00;48.70
43999;DHT22;51319;52.162;5.302;2023-08-30T12:30:27;30.80;47.10
43999;DHT22;51319;52.162;5.302;2023-08-30T12:33:00;31.40;46.70
43999;DHT22;51319;52.162;5.302;2023-08-30T12:35:29;31.60;43.60
43999;DHT22;51319;52.162;5.302;2023-08-30T12:37:57;30.90;44.30
43999;DHT22;51319;52.162;5.302;2023-08-30T12:40:30;30.80;44.80
43999;DHT22;51319;52.162;5.302;2023-08-30T12:43:16;30.80;43.60
43999;DHT22;51319;52.162;5.302;2023-08-30T12:45:44;30.70;43.20
43999;DHT22;51319;52.162;5.302;2023-08-30T12:48:12;30.30;44.00
43999;DHT22;51319;52.162;5.302;2023-08-30T12:50:43;30.40;43.90
43999;DHT22;51319;52.162;5.302;2023-08-30T12:53:11;30.50;44.50
43999;DHT22;51319;52.162;5.302;2023-08-30T12:55:38;29.50;43.80
43999;DHT22;51319;52.162;5.302;2023-08-30T12:58:07;29.20;44.70
43999;DHT22;51319;52.162;5.302;2023-08-30T13:00:35;29.00;45.00
43999;DHT22;51319;52.162;5.302;2023-08-30T13:03:03;28.70;45.10
43999;DHT22;51319;52.162;5.302;2023-08-30T13:05:32;28.50;45.30
43999;DHT22;51319;52.162;5.302;2023-08-30T13:08:00;28.30;45.50
43999;DHT22;51319;52.162;5.302;2023-08-30T13:10:27;28.30;46.40
43999;DHT22;51319;52.162;5.302;2023-08-30T13:12:54;28.00;46.10
43999;DHT22;51319;52.162;5.302;2023-08-30T13:15:22;27.40;46.70
43999;DHT22;51319;52.162;5.302;2023-08-30T13:17:49;26.80;47.30
43999;DHT22;51319;52.162;5.302;2023-08-30T13:20:16;26.20;48.30
43999;DHT22;51319;52.162;5.302;2023-08-30T13:22:43;25.50;49.60
43999;DHT22;51319;52.162;5.302;2023-08-30T13:25:11;24.90;50.80
43999;DHT22;51319;52.162;5.302;2023-08-30T13:27:37;24.40;51.70
43999;DHT22;51319;52.162;5.302;2023-08-30T13:30:05;24.10;53.00
43999;DHT22;51319;52.162;5.302;2023-08-30T13:32:32;23.90;54.10
43999;DHT22;51319;52.162;5.302;2023-08-30T13:35:00;24.00;54.10
43999;DHT22;51319;52.162;5.302;2023-08-30T13:37:27;24.20;53.90
43999;DHT22;51319;52.162;5.302;2023-08-30T13:39:56;24.30;53.40
43999;DHT22;51319;52.162;5.302;2023-08-30T13:42:25;24.30;53.50
43999;DHT22;51319;52.162;5.302;2023-08-30T13:44:52;24.10;53.90
43999;DHT22;51319;52.162;5.302;2023-08-30T13:47:19;23.80;55.10
43999;DHT22;51319;52.162;5.302;2023-08-30T13:49:48;23.70;56.10
43999;DHT22;51319;52.162;5.302;2023-08-30T13:52:16;23.40;56.70
43999;DHT22;51319;52.162;5.302;2023-08-30T13:54:43;23.00;57.40
43999;DHT22;51319;52.162;5.302;2023-08-30T13:57:11;22.60;58.30
43999;DHT22;51319;52.162;5.302;2023-08-30T13:59:39;22.10;59.40
43999;DHT22;51319;52.162;5.302;2023-08-30T14:02:06;21.70;60.20
43999;DHT22;51319;52.162;5.302;2023-08-30T14:04:33;21.50;61.20
43999;DHT22;51319;52.162;5.302;2023-08-30T14:07:01;21.20;61.80
43999;DHT22;51319;52.162;5.302;2023-08-30T14:09:30;21.00;62.70
43999;DHT22;51319;52.162;5.302;2023-08-30T14:11:57;20.90;63.90
43999;DHT22;51319;52.162;5.302;2023-08-30T14:14:24;20.80;64.50
43999;DHT22;51319;52.162;5.302;2023-08-30T14:16:59;20.70;65.10
43999;DHT22;51319;52.162;5.302;2023-08-30T14:19:28;20.50;66.70
43999;DHT22;51319;52.162;5.302;2023-08-30T14:21:57;20.40;66.90
43999;DHT22;51319;52.162;5.302;2023-08-30T14:24:25;20.20;67.70
43999;DHT22;51319;52.162;5.302;2023-08-30T14:26:52;20.00;68.80
43999;DHT22;51319;52.162;5.302;2023-08-30T14:29:20;20.00;69.90
43999;DHT22;51319;52.162;5.302;2023-08-30T14:31:53;19.90;71.00
43999;DHT22;51319;52.162;5.302;2023-08-30T14:34:21;19.90;71.80
43999;DHT22;51319;52.162;5.302;2023-08-30T14:36:48;19.90;72.30
43999;DHT22;51319;52.162;5.302;2023-08-30T14:39:15;20.10;72.70
43999;DHT22;51319;52.162;5.302;2023-08-30T14:41:45;20.30;72.50
43999;DHT22;51319;52.162;5.302;2023-08-30T14:44:17;20.50;72.00
43999;DHT22;51319;52.162;5.302;2023-08-30T14:46:45;20.70;69.50
43999;DHT22;51319;52.162;5.302;2023-08-30T14:49:12;20.80;67.40
43999;DHT22;51319;52.162;5.302;2023-08-30T14:51:39;21.10;65.70
43999;DHT22;51319;52.162;5.302;2023-08-30T14:54:06;21.30;64.60
43999;DHT22;51319;52.162;5.302;2023-08-30T14:56:33;21.30;62.80
43999;DHT22;51319;52.162;5.302;2023-08-30T14:59:00;21.10;61.60
43999;DHT22;51319;52.162;5.302;2023-08-30T15:01:30;21.00;62.30
43999;DHT22;51319;52.162;5.302;2023-08-30T15:03:57;20.90;63.00
43999;DHT22;51319;52.162;5.302;2023-08-30T15:06:26;20.70;63.70
43999;DHT22;51319;52.162;5.302;2023-08-30T15:08:53;20.50;64.00
43999;DHT22;51319;52.162;5.302;2023-08-30T15:11:20;20.30;64.70
43999;DHT22;51319;52.162;5.302;2023-08-30T15:13:47;20.10;65.50
43999;DHT22;51319;52.162;5.302;2023-08-30T15:16:16;20.00;66.50
43999;DHT22;51319;52.162;5.302;2023-08-30T15:18:43;19.80;67.90
43999;DHT22;51319;52.162;5.302;2023-08-30T15:21:10;19.60;69.50
43999;DHT22;51319;52.162;5.302;2023-08-30T15:23:37;19.50;71.60
43999;DHT22;51319;52.162;5.302;2023-08-30T15:26:05;19.50;73.00
43999;DHT22;51319;52.162;5.302;2023-08-30T15:28:34;19.50;73.40
43999;DHT22;51319;52.162;5.302;2023-08-30T15:31:01;19.60;73.20
43999;DHT22;51319;52.162;5.302;2023-08-30T15:33:31;19.70;73.70
43999;DHT22;51319;52.162;5.302;2023-08-30T15:35:59;19.70;74.20
43999;DHT22;51319;52.162;5.302;2023-08-30T15:38:30;19.70;73.80
43999;DHT22;51319;52.162;5.302;2023-08-30T15:40:57;19.60;73.60
43999;DHT22;51319;52.162;5.302;2023-08-30T15:43:26;19.50;73.90
43999;DHT22;51319;52.162;5.302;2023-08-30T15:45:53;19.40;74.80
43999;DHT22;51319;52.162;5.302;2023-08-30T15:48:20;19.30;75.20
43999;DHT22;51319;52.162;5.302;2023-08-30T15:50:48;19.20;75.40